• Join FlightAware (Why Join?)
  • Login
  • US Flag 
09:53PM EST


 

Airport Tracker/Info


-or-


 

Live Flight TrackerFlight Track Log ✈ NKS416 ✈ 18-Mar-2014 ✈ KFLL - KIAG

Flight Track Log - Related Links

Times and Time Zones

All times are in EDT time to prevent confusion due to time zone crossing. See the NKS416 flight status page for this flight to view local times or setup timezone preferences in your user account.

Time Position Orientation Groundspeed Altitude Reporting Facility
EDT Latitude Longitude Course Direction KTS MPH feet Rate Location/Type
11:00PM 26.0756 -80.1706 276° West 164 189 700  Level Miami Center
11:00PM 26.0769 -80.1844 276° West 163 188 1,400 1,595 Climbing Miami Center
11:01PM 26.0814 -80.2475 275° West 212 244 2,800 1,850 Climbing Miami Center
11:02PM 26.1228 -80.2744 330° Northwest 249 287 4,700 2,291 Climbing Miami Center
11:02PM 26.1322 -80.2722 12° North 286 329 4,900 2,696 Climbing Miami Center
11:03PM 26.1925 -80.2097 43° Northeast 300 345 7,800 2,839 Climbing Miami Center
11:04PM 26.2175 -80.1325 70° East 305 351 10,200 1,759 Climbing Miami Center
11:05PM 26.2289 -80.0258 83° East 357 411 11,200 1,500 Climbing Miami Center
11:06PM 26.2403 -79.9069 84° East 384 442 13,300 2,050 Climbing Miami Center
11:07PM 26.2533 -79.7839 83° East 399 459 15,300 1,934 Climbing Miami Center
11:08PM 26.2689 -79.6519 82° East 405 466 17,200 1,664 Climbing Miami Center
11:09PM 26.3383 -79.5500 53° Northeast 417 480 18,600 1,457 Climbing Miami Center
11:15PM 27.0131 -79.1729 27° Northeast 449 517 27,400 1,454 Climbing FlightAware ADS-B
11:15PM 27.0668 -79.1428 27° Northeast 449 517 28,100 761 Climbing FlightAware ADS-B
11:16PM 27.1404 -79.1017 27° Northeast 467 537 28,300 525 Climbing FlightAware ADS-B
11:17PM 27.2131 -79.0615 20° North 468 539 28,800 800 Climbing FlightAware ADS-B
11:17PM 27.2665 -79.0474 North 452 520 29,100 941 Climbing FlightAware ADS-B
11:17PM 27.3291 -79.0418 North 454 522 29,600 1,082 Climbing FlightAware ADS-B
11:18PM 27.3931 -79.0354 North 455 524 30,200 984 Climbing FlightAware ADS-B
11:18PM 27.4537 -79.0292 North 459 528 30,600 800 Climbing FlightAware ADS-B
11:19PM 27.5218 -79.0218 North 462 532 31,000 787 Climbing FlightAware ADS-B
11:19PM 27.5877 -79.0148 North 466 536 31,400 1,500 Climbing FlightAware ADS-B
11:20PM 27.6938 -79.0031 North 447 514 33,200 1,467 Climbing FlightAware ADS-B
11:21PM 27.7751 -78.9943 North 448 516 33,600 716 Climbing FlightAware ADS-B
11:22PM 27.8448 -78.9871 North 448 516 34,000 676 Climbing FlightAware ADS-B
11:22PM 27.9187 -78.9792 North 452 520 34,400 612 Climbing FlightAware ADS-B
11:23PM 28.0491 -78.9649 North 453 521 35,000 396 Climbing FlightAware ADS-B
11:24PM 28.1118 -78.9581 North 453 521 35,000  Level FlightAware ADS-B
11:24PM 28.1757 -78.9513 North 454 522 35,000  Level FlightAware ADS-B
11:25PM 28.2588 -78.9423 North 454 522 35,000  Level FlightAware ADS-B
11:25PM 28.3428 -78.9332 North 454 522 35,000  Level FlightAware ADS-B
11:26PM 28.4165 -78.9251 North 453 521 35,000  Level FlightAware ADS-B
11:27PM 28.4942 -78.9156 North 453 521 35,000  Level Miami Center
11:28PM 28.6172 -78.9025 North 449 517 35,000 -50 Level Miami Center
11:29PM 28.7672 -78.8867 North 450 518 34,900 -48 Descending Miami Center
11:30PM 28.8922 -78.8731 North 450 518 34,900  Level Miami Center
11:31PM 29.0147 -78.8594 North 450 518 34,900 51 Level Miami Center
11:32PM 29.1406 -78.8456 North 450 518 35,000 49 Climbing Miami Center
11:33PM 29.2661 -78.8322 North 451 519 35,000 -49 Level Miami Center
11:34PM 29.3906 -78.8181 North 451 519 34,900 -50 Descending Miami Center
11:35PM 29.5142 -78.8042 North 449 517 34,900  Level Miami Center
11:36PM 29.6389 -78.7906 North 449 517 34,900 48 Level Miami Center
11:37PM 29.7650 -78.7772 North 451 519 35,000 48 Climbing Miami Center
11:38PM 29.8886 -78.7622 North 452 520 35,000 -50 Level Miami Center
11:39PM 30.0139 -78.7483 North 450 518 34,900  Descending Miami Center
11:40PM 30.1461 -78.7331 North 450 518 35,000 49 Climbing Miami Center
11:41PM 30.2717 -78.7192 North 451 519 35,000  Level Miami Center
11:42PM 30.3953 -78.7061 North 449 517 35,000 -51 Level Miami Center
11:43PM 30.5189 -78.6922 North 448 516 34,900 -50 Descending Miami Center
11:44PM 30.6433 -78.6781 North 449 517 34,900 58 Level Miami Center
11:45PM 30.7392 -78.6681 North 436 502 35,000 60 Climbing Jacksonville Center
11:46PM 30.8639 -78.6528 North 442 509 35,000  Level Jacksonville Center
11:47PM 30.9867 -78.6400 North 437 503 35,000  Level Jacksonville Center
11:48PM 31.1075 -78.6297 North 441 507 35,000 -50 Level Jacksonville Center
11:49PM 31.2197 -78.6150 North 441 507 34,900 -50 Descending Jacksonville Center
11:50PM 31.3406 -78.6069 North 441 507 34,900 50 Level Jacksonville Center
11:51PM 31.4669 -78.5817 10° North 441 507 35,000  Climbing Jacksonville Center
11:52PM 31.5856 -78.5711 North 441 507 34,900 -50 Descending Jacksonville Center
11:53PM 31.7083 -78.5558 North 441 507 34,900 50 Level Jacksonville Center
11:54PM 31.8331 -78.5425 North 441 507 35,000 50 Climbing Jacksonville Center
11:55PM 31.9536 -78.5294 North 441 507 35,000  Level Jacksonville Center
11:56PM 32.0761 -78.5139 North 441 507 35,000  Level Jacksonville Center
11:57PM 32.1989 -78.4983 North 441 507 35,000  Level Jacksonville Center
11:58PM 32.3217 -78.4850 North 441 507 35,000 -50 Level Jacksonville Center
11:59PM 32.4442 -78.4667 North 441 507 34,900 -50 Descending Jacksonville Center
12:00AM 32.5647 -78.4558 North 441 507 34,900 50 Level Jacksonville Center
12:01AM 32.6875 -78.4425 North 441 507 35,000 50 Climbing Jacksonville Center
12:02AM 32.8058 -78.4242 North 441 507 35,000  Level Jacksonville Center
12:03AM 32.9283 -78.4108 North 441 507 35,000 -50 Level Jacksonville Center
12:04AM 33.0467 -78.3950 North 441 507 34,900  Descending Jacksonville Center
12:05AM 33.2550 -78.3700 North 442 509 35,000 38 Climbing Washington Center
12:06AM 33.3742 -78.3592 North 437 503 35,000  Level Washington Center
12:07AM 33.4956 -78.3431 North 432 497 35,000 -50 Level Washington Center
12:08AM 33.6106 -78.3319 North 427 491 34,900 -50 Descending Washington Center
12:09AM 33.7319 -78.3158 North 427 491 34,900 50 Level Washington Center
12:10AM 33.8533 -78.3025 North 427 491 35,000 50 Climbing Washington Center
12:11AM 33.9600 -78.2908 North 427 491 35,000  Level Washington Center
12:12AM 34.0811 -78.2772 North 427 491 35,000  Level Washington Center
12:13AM 34.2047 -78.2611 North 432 497 35,000  Level Washington Center
12:19AM 34.8561 -78.2647 356° North 421 484 35,000  Level FlightAware ADS-B (KJNX)
12:20AM 34.9365 -78.2707 356° North 422 486 35,000  Level FlightAware ADS-B (KJNX)
12:20AM 35.0018 -78.2754 356° North 423 487 35,000  Level FlightAware ADS-B (KJNX)
12:21AM 35.0924 -78.2821 356° North 424 488 35,000  Level FlightAware ADS-B (KJNX)
12:22AM 35.1740 -78.2882 356° North 424 488 35,000  Level FlightAware ADS-B (KJNX)
12:22AM 35.2508 -78.2938 356° North 423 487 35,000  Level FlightAware ADS-B (KJNX)
12:23AM 35.3307 -78.2999 356° North 423 487 35,000  Level FlightAware ADS-B (KJNX)
12:23AM 35.3979 -78.3049 356° North 423 487 35,000  Level FlightAware ADS-B (KJNX)
12:24AM 35.4807 -78.3111 356° North 422 486 35,000  Level FlightAware ADS-B (KJNX)
12:25AM 35.5600 -78.3169 356° North 421 484 35,000  Level FlightAware ADS-B (KJNX)
12:25AM 35.6328 -78.3225 356° North 420 483 35,000  Level FlightAware ADS-B (KJNX)
12:26AM 35.6869 -78.3265 356° North 421 484 35,000  Level FlightAware ADS-B (KJNX)
12:27AM 35.7779 -78.3334 356° North 421 484 35,000  Level FlightAware ADS-B (KJNX)
12:28AM 35.8744 -78.3409 356° North 421 484 35,000  Level FlightAware ADS-B (KJNX)
12:28AM 35.9557 -78.3470 356° North 421 484 35,000  Level FlightAware ADS-B (KJNX)
12:29AM 36.0504 -78.3541 356° North 421 484 35,000  Level FlightAware ADS-B (KJNX)
12:30AM 36.2114 -78.3697 356° North 422 486 35,000  Level Washington Center
12:31AM 36.3281 -78.3789 356° North 422 486 35,000  Level Washington Center
12:32AM 36.4428 -78.3856 357° North 422 486 35,000  Level Washington Center
12:33AM 36.5594 -78.3950 356° North 417 480 35,000  Level Washington Center
12:34AM 36.6758 -78.4044 356° North 417 480 35,000  Level Washington Center
12:35AM 36.7758 -78.4133 356° North 410 472 35,000  Level Washington Center
12:36AM 36.8944 -78.4228 356° North 410 472 35,000  Level Washington Center
12:37AM 37.0114 -78.4269 358° North 415 478 35,000  Level Washington Center
12:38AM 37.1258 -78.4364 356° North 415 478 35,000  Level Washington Center
12:44AM 37.7770 -78.4882 356° North 420 483 35,000  Level FlightAware ADS-B (KCHO)
12:44AM 37.8269 -78.4921 357° North 421 484 35,000  Level FlightAware ADS-B (KCHO)
12:45AM 37.9174 -78.4992 356° North 422 486 35,000  Level FlightAware ADS-B (KCHO)
12:46AM 37.9706 -78.5035 356° North 422 486 35,000  Level FlightAware ADS-B (KCHO)
12:46AM 38.0305 -78.5083 356° North 422 486 35,000  Level FlightAware ADS-B (KCHO)
12:48AM 38.2061 -78.5225 356° North 421 484 35,000  Level FlightAware ADS-B (KCHO)
12:48AM 38.2875 -78.5306 356° North 414 476 35,000  Level Washington Center
12:49AM 38.4039 -78.5406 356° North 414 476 35,000  Level Washington Center
12:52AM 38.6782 -78.5607 356° North 423 487 35,000  Level FlightAware ADS-B (KWWD)
12:52AM 38.7556 -78.5706 356° North 419 482 35,000  Level Washington Center
12:53AM 38.8700 -78.5806 356° North 419 482 35,000  Level Washington Center
12:54AM 38.9886 -78.5881 357° North 419 482 35,000  Level Washington Center
12:57AM 39.2517 -78.6075 357° North 422 486 35,000  Level Cleveland Center
12:58AM 39.3697 -78.6172 356° North 423 487 35,000  Level Cleveland Center
01:04AM 40.1151 -78.6800 356° North 427 491 35,000  Level FlightAware ADS-B
01:05AM 40.2183 -78.6881 356° North 426 490 35,000  Level Cleveland Center
01:10AM 40.8907 -78.7466 356° North 431 496 35,000  Level FlightAware ADS-B (CYYZ)
01:11AM 40.9094 -78.7483 357° North 431 496 35,000 -1,557 Level FlightAware ADS-B (CYYZ)
01:14AM 41.3628 -78.7878 357° North 439 505 28,900 -1,857 Descending FlightAware ADS-B (CYYZ)
01:15AM 41.4835 -78.7985 357° North 424 488 26,800 -2,044 Descending FlightAware ADS-B (CYYZ)
01:16AM 41.5435 -78.8038 357° North 417 480 25,800 -2,100 Descending FlightAware ADS-B (CYYZ)
01:16AM 41.5993 -78.8088 357° North 413 475 24,700 -1,967 Descending FlightAware ADS-B (CYYZ)
01:17AM 41.6572 -78.8138 357° North 403 464 23,800 -1,869 Descending FlightAware ADS-B (CYYZ)
01:17AM 41.7125 -78.8188 356° North 397 457 22,800 -2,069 Descending FlightAware ADS-B (CYYZ)
01:18AM 41.7649 -78.8236 357° North 391 450 21,800 -1,831 Descending FlightAware ADS-B (CYYZ)
01:18AM 41.8185 -78.8283 357° North 387 445 21,000 -2,017 Descending FlightAware ADS-B (CYYZ)
01:20AM 41.9678 -78.8419 356° North 377 434 17,900 -2,118 Descending FlightAware ADS-B (CYYZ)
01:21AM 42.1115 -78.8549 357° North 369 425 15,000 -1,930 Descending FlightAware ADS-B (CYYZ)
01:22AM 42.1613 -78.8594 357° North 361 415 14,200 -1,800 Descending FlightAware ADS-B (CYYZ)
01:22AM 42.2123 -78.8639 357° North 358 412 13,200 -2,000 Descending FlightAware ADS-B (CYYZ)
01:23AM 42.2623 -78.8685 356° North 355 409 12,200 -1,900 Descending FlightAware ADS-B (CYYZ)
01:23AM 42.3121 -78.8728 357° North 352 405 11,300 -1,130 Descending FlightAware ADS-B (CYYZ)
01:24AM 42.3737 -78.8779 North 345 397 10,900 -480 Descending FlightAware ADS-B (CYYZ)
01:24AM 42.3911 -78.8753 11° North 349 402 10,900  Level FlightAware ADS-B (CYYZ)
01:25AM 42.4531 -78.8524 16° North 351 404 10,900  Level FlightAware ADS-B (CYYZ)
01:25AM 42.4975 -78.8357 15° North 353 406 10,900 -295 Level FlightAware ADS-B (CYYZ)
01:26AM 42.5471 -78.8173 15° North 337 388 10,600 -787 Descending FlightAware ADS-B (CYYZ)
01:26AM 42.5903 -78.8008 16° North 320 368 10,100 -1,067 Descending FlightAware ADS-B (CYYZ)
01:26AM 42.6120 -78.7925 15° North 318 366 9,800 -1,200 Descending FlightAware ADS-B (CYYZ)
01:27AM 42.6335 -78.7848 14° North 312 359 9,500 -1,200 Descending FlightAware ADS-B (CYYZ)
01:27AM 42.6532 -78.7783 13° North 309 356 9,200 -1,400 Descending FlightAware ADS-B (CYYZ)
01:27AM 42.6742 -78.7717 13° North 307 353 8,800 -1,800 Descending FlightAware ADS-B (CYYZ)
01:27AM 42.6955 -78.7650 13° North 307 353 8,300 -1,600 Descending FlightAware ADS-B (CYYZ)
01:28AM 42.7161 -78.7583 13° North 304 350 8,000 -1,400 Descending FlightAware ADS-B (CYYZ)
01:28AM 42.7355 -78.7519 13° North 302 348 7,600 -1,355 Descending FlightAware ADS-B (CYYZ)
01:28AM 42.7574 -78.7446 13° North 295 339 7,300 -1,200 Descending FlightAware ADS-B (CYYZ)
01:28AM 42.7752 -78.7387 13° North 293 337 7,000 -1,286 Descending FlightAware ADS-B (CYYZ)
01:29AM 42.7941 -78.7327 13° North 290 334 6,700 -1,448 Descending FlightAware ADS-B (CYYZ)
01:29AM 42.8137 -78.7266 12° North 289 333 6,300 -1,463 Descending FlightAware ADS-B (CYYZ)
01:29AM 42.8478 -78.7159 12° North 286 329 5,700 -1,317 Descending FlightAware ADS-B (CYYZ)
01:30AM 42.8655 -78.7106 12° North 282 325 5,400 -1,231 Descending FlightAware ADS-B (CYYZ)
01:30AM 42.8963 -78.7015 12° North 276 318 4,900 -1,560 Descending FlightAware ADS-B (CYYZ)
01:30AM 42.9298 -78.7007 353° North 270 311 4,100 -1,923 Descending FlightAware ADS-B (CYYZ)
01:31AM 42.9833 -78.7000 353° North 280 322 2,400 -1,125 Descending Buffalo TRACON
01:32AM 43.0667 -78.7333 344° North 260 299 2,000 -200 Descending Buffalo TRACON
01:33AM 43.1000 -78.7833 312° West 194 223 2,000 -200 Level Buffalo TRACON
01:34AM 43.1167 -78.8500 289° West 143 165 1,600 -500 Descending Buffalo TRACON
01:35AM 43.1167 -78.9000 270° West 137 158 1,000 -505 Descending Buffalo TRACON
01:36AM 43.1089 -78.9322 252° West 146 168 800 -343 Descending Cleveland Center